El Campo, Texas
Current Conditions -  °F | °C
As of 4:55 PM on Thursday 20 Nov 2014 (Local Time) from KARM Reporting Station
Drizzle Drizzle  
Wind Chill: 64°   Ceiling: 4000
Heat Index: 64°   Visibility: 7mi
Dew Point: 60°   Wind: 7mph
Humidity: 86%   Direction: 120°ESE
Pressure: 30.08"   Gusts: NA
Location:  29.22°N, 96.29°W
Report Text: KARM 202255Z AUTO 12006KT 7SM DZ SCT030 OVC040 18/16 A3008 RMK AO2 T01800157
Loading
Personal Weather Stations






























Interactive Weather Map New forecast layout! Learn more

10-Day Weather Forecast

Advertisements
Track Severe Weather on mobile